Terminal Aerodrome Forecast
Issued by NWS Louisville, KY

Home | Current Version | Previous Version | Text Only | Print | Product List | Glossary On
Versions: 1 2 3 4 5 6 7 8 9 10 11 12 13
000
FTUS43 KLMK 012300
TAFBWG
TAF
KBWG 012324Z 0200/0224 29004KT 4SM -SHRA BR OVC008
     FM020600 33005KT 4SM -DZ BR BKN012 OVC030
     FM021100 02005KT P6SM BKN021
     FM021700 06005KT P6SM SCT025 SCT080=

USA.gov is the U.S. government's official web portal to all federal, state and local government web resources and services.